createdAt,value
2017-10-23T00:00:17.866Z,10.09
2017-10-23T00:01:17.456Z,10.2
2017-10-23T00:02:17.780Z,10.07
2017-10-23T00:03:17.473Z,10.07
2017-10-23T00:04:17.773Z,9.98
2017-10-23T00:05:17.961Z,10.1
2017-10-23T00:06:17.769Z,10.17
2017-10-23T00:07:17.764Z,10.17
2017-10-23T00:08:17.435Z,10.15
2017-10-23T00:09:17.750Z,10.07
2017-10-23T00:10:18.013Z,10.13
2017-10-23T00:11:17.741Z,10.07
2017-10-23T00:12:17.415Z,9.99
2017-10-23T00:13:17.418Z,10.07
2017-10-23T00:14:17.411Z,10.15
2017-10-23T00:15:17.789Z,10.1
2017-10-23T00:16:17.413Z,10.09
2017-10-23T00:17:17.399Z,10.1
2017-10-23T00:18:17.716Z,10.17
2017-10-23T00:19:17.406Z,10.15
2017-10-23T00:20:18.088Z,10.13
2017-10-23T00:21:17.717Z,10.12
2017-10-23T00:22:17.750Z,10.15
2017-10-23T00:23:17.717Z,10.19
2017-10-23T00:24:17.704Z,10.05
2017-10-23T00:25:19.252Z,10.09
2017-10-23T00:26:17.688Z,10.17
2017-10-23T00:27:17.044Z,10.17
2017-10-23T00:28:17.691Z,10.12
2017-10-23T00:29:17.690Z,10.13
2017-10-23T00:30:18.797Z,10.16
2017-10-23T00:31:17.036Z,10.1
2017-10-23T00:32:17.778Z,10.09
2017-10-23T00:33:17.346Z,9.99
2017-10-23T00:34:17.334Z,10.01
2017-10-23T00:35:18.695Z,10.13
2017-10-23T00:36:17.349Z,10.09
2017-10-23T00:37:17.333Z,10.05
2017-10-23T00:38:17.323Z,9.99
2017-10-23T00:39:17.320Z,9.99
2017-10-23T00:40:20.411Z,9.99
2017-10-23T00:41:16.988Z,10.01
2017-10-23T00:42:17.323Z,10.01
2017-10-23T00:43:17.639Z,10.09
2017-10-23T00:44:16.985Z,10.02
2017-10-23T00:45:20.284Z,10.09
2017-10-23T00:46:17.625Z,10.02
2017-10-23T00:47:17.611Z,9.95
2017-10-23T00:48:17.616Z,9.98
2017-10-23T00:49:17.644Z,9.97
2017-10-23T00:50:17.355Z,10.01
2017-10-23T00:51:17.290Z,9.95
2017-10-23T00:52:17.595Z,9.86
2017-10-23T00:53:17.589Z,9.91
2017-10-23T00:54:16.954Z,9.91
2017-10-23T00:55:18.050Z,9.89
2017-10-23T00:56:17.579Z,9.86
2017-10-23T00:57:17.580Z,9.86
2017-10-23T00:58:17.569Z,9.77
2017-10-23T00:59:17.571Z,9.89
2017-10-23T01:00:17.582Z,9.84
2017-10-23T01:01:17.569Z,9.87
2017-10-23T01:02:16.911Z,9.77
2017-10-23T01:03:17.554Z,9.8
2017-10-23T01:04:16.910Z,9.79
2017-10-23T01:05:17.904Z,9.89
2017-10-23T01:06:17.537Z,9.83
2017-10-23T01:07:17.217Z,9.89
2017-10-23T01:08:17.535Z,9.84
2017-10-23T01:09:17.527Z,9.86
2017-10-23T01:10:17.920Z,9.89
2017-10-23T01:11:17.531Z,9.89
2017-10-23T01:12:17.204Z,9.84
2017-10-23T01:13:17.195Z,9.83
2017-10-23T01:14:17.191Z,9.87
2017-10-23T01:15:18.568Z,9.87
2017-10-23T01:16:17.189Z,9.87
2017-10-23T01:17:17.503Z,9.83
2017-10-23T01:18:17.176Z,9.84
2017-10-23T01:19:17.172Z,9.82
2017-10-23T01:20:18.276Z,9.83
2017-10-23T01:21:16.845Z,9.76
2017-10-23T01:22:16.832Z,9.77
2017-10-23T01:23:17.483Z,9.77
2017-10-23T01:24:17.474Z,9.86
2017-10-23T01:25:18.012Z,9.73
2017-10-23T01:26:17.465Z,9.8
2017-10-23T01:27:17.471Z,9.76
2017-10-23T01:28:17.145Z,9.8
2017-10-23T01:29:17.450Z,9.77
2017-10-23T01:30:18.153Z,9.84
2017-10-23T01:31:17.931Z,9.8
2017-10-23T01:32:17.455Z,9.84
2017-10-23T01:33:18.369Z,9.86
2017-10-23T01:34:17.441Z,9.82
2017-10-23T01:35:18.070Z,9.86
2017-10-23T01:36:16.785Z,9.84
2017-10-23T01:37:17.420Z,9.82
2017-10-23T01:38:17.100Z,9.79
2017-10-23T01:39:17.417Z,9.77
2017-10-23T01:40:18.202Z,9.74
2017-10-23T01:41:17.404Z,9.74
2017-10-23T01:42:17.421Z,9.76
2017-10-23T01:43:17.393Z,9.74
2017-10-23T01:44:17.076Z,9.76
2017-10-23T01:45:17.583Z,9.74
2017-10-23T01:46:17.850Z,9.77
2017-10-23T01:47:17.396Z,9.69
2017-10-23T01:48:17.058Z,9.8
2017-10-23T01:49:17.411Z,9.72
2017-10-23T01:50:17.812Z,9.79
2017-10-23T01:51:16.726Z,9.79
2017-10-23T01:52:17.371Z,9.8
2017-10-23T01:53:17.378Z,9.69
2017-10-23T01:54:17.043Z,9.66
2017-10-23T01:55:18.489Z,9.72
2017-10-23T01:56:17.375Z,9.62
2017-10-23T01:57:17.356Z,9.58
2017-10-23T01:58:16.700Z,9.54
2017-10-23T01:59:17.020Z,9.5
2017-10-23T02:00:18.228Z,9.58
2017-10-23T02:01:17.005Z,9.51
2017-10-23T02:02:17.342Z,9.59
2017-10-23T02:03:17.338Z,9.56
2017-10-23T02:04:17.320Z,9.55
2017-10-23T02:05:18.224Z,9.51
2017-10-23T02:06:17.306Z,9.43
2017-10-23T02:07:17.305Z,9.47
2017-10-23T02:08:16.978Z,9.46
2017-10-23T02:09:16.975Z,9.39
2017-10-23T02:10:17.571Z,9.47
2017-10-23T02:11:17.295Z,9.37
2017-10-23T02:12:16.970Z,9.37
2017-10-23T02:13:16.958Z,9.36
2017-10-23T02:14:17.280Z,9.36
2017-10-23T02:15:17.699Z,9.31
2017-10-23T02:16:17.282Z,9.31
2017-10-23T02:17:17.264Z,9.36
2017-10-23T02:18:17.264Z,9.32
2017-10-23T02:19:16.945Z,9.32
2017-10-23T02:20:17.795Z,9.29
2017-10-23T02:21:17.248Z,9.28
2017-10-23T02:22:17.242Z,9.29
2017-10-23T02:23:16.915Z,9.32
2017-10-23T02:24:16.591Z,9.31
2017-10-23T02:25:17.801Z,9.34
2017-10-23T02:26:16.908Z,9.31
2017-10-23T02:27:16.581Z,9.36
2017-10-23T02:28:16.892Z,9.32
2017-10-23T02:29:16.566Z,9.29
2017-10-23T02:30:18.042Z,9.36
2017-10-23T02:31:16.562Z,9.29
2017-10-23T02:32:16.886Z,9.29
2017-10-23T02:33:17.198Z,9.29
2017-10-23T02:34:17.198Z,9.29
2017-10-23T02:35:18.437Z,9.26
2017-10-23T02:36:17.188Z,9.37
2017-10-23T02:37:16.543Z,9.31
2017-10-23T02:38:16.855Z,9.34
2017-10-23T02:39:17.176Z,9.31
2017-10-23T02:40:17.919Z,9.31
2017-10-23T02:41:16.863Z,9.29
2017-10-23T02:42:16.859Z,9.34
2017-10-23T02:43:16.836Z,9.32
2017-10-23T02:44:17.147Z,9.4
2017-10-23T02:45:17.341Z,9.31
2017-10-23T02:46:17.139Z,9.29
2017-10-23T02:47:22.487Z,9.31
2017-10-23T02:48:16.806Z,9.31
2017-10-23T02:49:16.804Z,9.31
2017-10-23T02:50:17.505Z,9.32
2017-10-23T02:51:17.125Z,9.29
2017-10-23T02:52:17.111Z,9.31
2017-10-23T02:53:16.799Z,9.26
2017-10-23T02:54:17.112Z,9.29
2017-10-23T02:55:17.675Z,9.36
2017-10-23T02:56:16.780Z,9.36
2017-10-23T02:57:17.089Z,9.31
2017-10-23T02:58:17.109Z,9.26
2017-10-23T02:59:17.084Z,9.32
2017-10-23T03:00:17.806Z,9.32
2017-10-23T03:01:16.747Z,9.36
2017-10-23T03:02:16.747Z,9.29
2017-10-23T03:03:16.745Z,9.25
2017-10-23T03:04:17.071Z,9.28
2017-10-23T03:05:18.184Z,9.31
2017-10-23T03:06:16.745Z,9.36
2017-10-23T03:07:16.731Z,9.26
2017-10-23T03:08:16.742Z,9.25
2017-10-23T03:09:16.731Z,9.14
2017-10-23T03:10:17.913Z,9.26
2017-10-23T03:11:16.704Z,9.19
2017-10-23T03:12:16.386Z,9.18
2017-10-23T03:13:17.034Z,9.16
2017-10-23T03:14:17.013Z,9.16
2017-10-23T03:15:17.904Z,9.13
2017-10-23T03:16:17.014Z,9.16
2017-10-23T03:17:16.690Z,9.26
2017-10-23T03:18:16.990Z,9.36
2017-10-23T03:19:17.000Z,9.34
2017-10-23T03:20:16.872Z,9.29
2017-10-23T03:21:16.982Z,9.32
2017-10-23T03:22:16.658Z,9.34
2017-10-23T03:23:16.660Z,9.34
2017-10-23T03:24:16.642Z,9.37
2017-10-23T03:25:18.117Z,9.34
2017-10-23T03:26:16.960Z,9.23
2017-10-23T03:27:16.960Z,9.23
2017-10-23T03:28:16.631Z,9.18
2017-10-23T03:29:16.948Z,9.21
2017-10-23T03:30:18.464Z,9.14
2017-10-23T03:31:16.947Z,9.14
2017-10-23T03:32:16.937Z,9.21
2017-10-23T03:33:16.924Z,9.11
2017-10-23T03:34:16.619Z,9.14
2017-10-23T03:35:18.008Z,9.19
2017-10-23T03:36:16.917Z,9.11
2017-10-23T03:37:16.907Z,9.16
2017-10-23T03:38:16.267Z,9.29
2017-10-23T03:39:16.262Z,9.18
2017-10-23T03:40:17.875Z,9.26
2017-10-23T03:41:16.898Z,9.26
2017-10-23T03:42:16.904Z,9.29
2017-10-23T03:43:16.881Z,9.16
2017-10-23T03:44:16.562Z,9.14
2017-10-23T03:45:17.468Z,9.16
2017-10-23T03:46:16.873Z,9.1
2017-10-23T03:47:16.871Z,9.1
2017-10-23T03:48:17.312Z,9.03
2017-10-23T03:49:16.868Z,9.04
2017-10-23T03:50:17.010Z,9.04
2017-10-23T03:51:16.852Z,9.03
2017-10-23T03:52:16.526Z,9.02
2017-10-23T03:53:16.850Z,9
2017-10-23T03:54:16.521Z,9
2017-10-23T03:55:18.026Z,9
2017-10-23T03:56:16.833Z,8.94
2017-10-23T03:57:16.829Z,9.02
2017-10-23T03:58:16.500Z,9.04
2017-10-23T03:59:16.821Z,9.13
2017-10-23T04:00:17.473Z,9.14
2017-10-23T04:01:16.523Z,9.13
2017-10-23T04:02:16.799Z,9.18
2017-10-23T04:03:20.178Z,9.1
2017-10-23T04:04:16.479Z,9.11
2017-10-23T04:05:17.164Z,8.99
2017-10-23T04:06:16.464Z,9.11
2017-10-23T04:07:16.146Z,9.13
2017-10-23T04:08:16.455Z,9.13
2017-10-23T04:09:16.789Z,9.14
2017-10-23T04:10:17.872Z,9.06
2017-10-23T04:11:16.778Z,9.06
2017-10-23T04:12:16.782Z,9.13
2017-10-23T04:13:16.768Z,9.14
2017-10-23T04:14:16.762Z,9.21
2017-10-23T04:15:17.889Z,9.1
2017-10-23T04:16:16.423Z,9.11
2017-10-23T04:17:16.412Z,9.18
2017-10-23T04:18:16.977Z,9.22
2017-10-23T04:19:16.746Z,9.19
2017-10-23T04:20:17.631Z,9.19
2017-10-23T04:21:16.725Z,9.19
2017-10-23T04:22:16.402Z,9.22
2017-10-23T04:23:16.412Z,9.18
2017-10-23T04:24:16.398Z,9.19
2017-10-23T04:25:17.160Z,9.11
2017-10-23T04:26:16.421Z,9.23
2017-10-23T04:27:16.378Z,9.18
2017-10-23T04:28:16.704Z,9.19
2017-10-23T04:29:16.054Z,9.16
2017-10-23T04:30:16.751Z,9.14
2017-10-23T04:31:16.348Z,9.29
2017-10-23T04:32:16.361Z,9.26
2017-10-23T04:33:16.352Z,9.34
2017-10-23T04:34:16.352Z,9.28
2017-10-23T04:35:16.890Z,9.32
2017-10-23T04:36:16.369Z,9.29
2017-10-23T04:37:16.389Z,9.29
2017-10-23T04:38:16.646Z,9.39
2017-10-23T04:39:16.681Z,9.36
2017-10-23T04:40:17.117Z,9.31
2017-10-23T04:41:16.633Z,9.32
2017-10-23T04:42:15.988Z,9.34
2017-10-23T04:43:16.303Z,9.34
2017-10-23T04:44:16.304Z,9.29
2017-10-23T04:45:17.543Z,9.43
2017-10-23T04:46:15.971Z,9.37
2017-10-23T04:47:16.299Z,9.43
2017-10-23T04:48:16.626Z,9.48
2017-10-23T04:49:22.356Z,9.47
2017-10-23T04:50:17.114Z,9.43
2017-10-23T04:51:16.287Z,9.41
2017-10-23T04:52:16.582Z,9.46
2017-10-23T04:53:16.582Z,9.41
2017-10-23T04:54:16.581Z,9.47
2017-10-23T04:55:17.114Z,9.39
2017-10-23T04:56:16.581Z,9.44
2017-10-23T04:57:16.247Z,9.43
2017-10-23T04:58:16.236Z,9.48
2017-10-23T04:59:16.229Z,9.36
2017-10-23T05:00:17.780Z,9.39
2017-10-23T05:01:16.551Z,9.41
2017-10-23T05:02:15.988Z,9.43
2017-10-23T05:03:16.545Z,9.43
2017-10-23T05:04:16.216Z,9.48
2017-10-23T05:05:17.995Z,9.44
2017-10-23T05:06:16.236Z,9.51
2017-10-23T05:07:15.878Z,9.46
2017-10-23T05:08:16.192Z,9.47
2017-10-23T05:09:16.200Z,9.41
2017-10-23T05:10:17.325Z,9.47
2017-10-23T05:11:16.549Z,9.44
2017-10-23T05:12:16.555Z,9.44
2017-10-23T05:13:16.496Z,9.48
2017-10-23T05:14:16.168Z,9.43
2017-10-23T05:15:17.597Z,9.4
2017-10-23T05:16:16.162Z,9.43
2017-10-23T05:17:16.489Z,9.43
2017-10-23T05:18:16.155Z,9.44
2017-10-23T05:19:16.150Z,9.51
2017-10-23T05:20:17.901Z,9.56
2017-10-23T05:21:16.465Z,9.55
2017-10-23T05:22:16.465Z,9.51
2017-10-23T05:23:16.459Z,9.48
2017-10-23T05:24:16.449Z,9.41
2017-10-23T05:25:16.891Z,9.43
2017-10-23T05:26:16.129Z,9.43
2017-10-23T05:27:16.129Z,9.44
2017-10-23T05:28:16.436Z,9.41
2017-10-23T05:29:15.794Z,9.44
2017-10-23T05:30:17.400Z,9.43
2017-10-23T05:31:15.787Z,9.48
2017-10-23T05:32:16.110Z,9.5
2017-10-23T05:33:16.125Z,9.51
2017-10-23T05:34:16.415Z,9.51
2017-10-23T05:35:18.575Z,9.54
2017-10-23T05:36:16.403Z,9.58
2017-10-23T05:37:16.405Z,9.5
2017-10-23T05:38:16.397Z,9.43
2017-10-23T05:39:16.393Z,9.41
2017-10-23T05:40:17.199Z,9.43
2017-10-23T05:41:16.392Z,9.46
2017-10-23T05:42:16.381Z,9.44
2017-10-23T05:43:16.377Z,9.47
2017-10-23T05:44:16.051Z,9.48
2017-10-23T05:45:17.027Z,9.41
2017-10-23T05:46:16.359Z,9.47
2017-10-23T05:47:16.362Z,9.46
2017-10-23T05:48:16.360Z,9.48
2017-10-23T05:49:16.404Z,9.4
2017-10-23T05:50:17.803Z,9.5
2017-10-23T05:51:15.696Z,9.43
2017-10-23T05:52:16.345Z,9.4
2017-10-23T05:53:16.013Z,9.44
2017-10-23T05:54:16.338Z,9.46
2017-10-23T05:55:17.265Z,9.48
2017-10-23T05:56:16.324Z,9.59
2017-10-23T05:57:16.334Z,9.55
2017-10-23T05:58:15.994Z,9.55
2017-10-23T05:59:15.992Z,9.51
2017-10-23T06:00:17.667Z,9.58
2017-10-23T06:01:16.314Z,9.58
2017-10-23T06:02:15.986Z,9.55
2017-10-23T06:03:16.310Z,9.58
2017-10-23T06:04:15.642Z,9.54
2017-10-23T06:05:17.804Z,9.64
2017-10-23T06:06:15.967Z,9.56
2017-10-23T06:07:15.954Z,9.65
2017-10-23T06:08:16.271Z,9.5
2017-10-23T06:09:16.276Z,9.61
2017-10-23T06:10:16.963Z,9.55
2017-10-23T06:11:16.286Z,9.64
2017-10-23T06:12:15.621Z,9.56
2017-10-23T06:13:15.962Z,9.64
2017-10-23T06:14:16.261Z,9.56
2017-10-23T06:15:17.218Z,9.72
2017-10-23T06:16:16.239Z,9.62
2017-10-23T06:17:15.914Z,9.69
2017-10-23T06:18:15.909Z,9.72
2017-10-23T06:19:16.229Z,9.69
2017-10-23T06:20:16.748Z,9.74
2017-10-23T06:21:16.248Z,9.77
2017-10-23T06:22:16.225Z,9.83
2017-10-23T06:23:16.217Z,9.82
2017-10-23T06:24:15.893Z,9.86
2017-10-23T06:25:17.296Z,9.86
2017-10-23T06:26:15.573Z,9.82
2017-10-23T06:27:15.562Z,9.83
2017-10-23T06:28:16.196Z,9.84
2017-10-23T06:29:16.194Z,9.87
2017-10-23T06:30:17.362Z,9.82
2017-10-23T06:31:16.181Z,9.82
2017-10-23T06:32:16.194Z,9.8
2017-10-23T06:33:16.179Z,9.86
2017-10-23T06:34:15.847Z,9.82
2017-10-23T06:35:17.364Z,9.86
2017-10-23T06:36:15.903Z,9.86
2017-10-23T06:37:15.838Z,9.86
2017-10-23T06:38:16.166Z,9.87
2017-10-23T06:39:16.166Z,9.86
2017-10-23T06:40:17.631Z,9.87
2017-10-23T06:41:16.147Z,9.74
2017-10-23T06:42:15.495Z,9.77
2017-10-23T06:43:15.816Z,9.76
2017-10-23T06:44:16.141Z,9.86
2017-10-23T06:45:17.476Z,9.83
2017-10-23T06:46:16.123Z,9.86
2017-10-23T06:47:15.794Z,9.8
2017-10-23T06:48:15.798Z,9.84
2017-10-23T06:49:16.119Z,9.82
2017-10-23T06:50:16.936Z,9.83
2017-10-23T06:51:18.717Z,9.95
2017-10-23T06:52:16.105Z,9.86
2017-10-23T06:53:16.104Z,9.92
2017-10-23T06:54:15.771Z,9.86
2017-10-23T06:55:16.943Z,9.92
2017-10-23T06:56:15.449Z,9.95
2017-10-23T06:57:15.760Z,9.98
2017-10-23T06:58:15.757Z,9.94
2017-10-23T06:59:16.070Z,9.87
2017-10-23T07:00:17.429Z,9.92
2017-10-23T07:01:16.069Z,9.92
2017-10-23T07:02:15.428Z,9.98
2017-10-23T07:03:16.059Z,9.99
2017-10-23T07:04:15.731Z,10.02
2017-10-23T07:05:18.005Z,10.12
2017-10-23T07:06:15.843Z,10.13
2017-10-23T07:07:16.054Z,10.07
2017-10-23T07:08:16.047Z,10.05
2017-10-23T07:09:16.084Z,10.05
2017-10-23T07:10:17.147Z,10.16
2017-10-23T07:11:16.030Z,10.09
2017-10-23T07:12:16.028Z,10.01
2017-10-23T07:13:16.033Z,9.98
2017-10-23T07:14:15.700Z,10.09
2017-10-23T07:15:17.055Z,10.02
2017-10-23T07:16:15.690Z,10.13
2017-10-23T07:17:16.012Z,10.2
2017-10-23T07:18:15.687Z,10.23
2017-10-23T07:19:15.998Z,10.3
2017-10-23T07:20:16.697Z,10.28
2017-10-23T07:21:17.828Z,10.3
2017-10-23T07:22:15.683Z,10.37
2017-10-23T07:23:15.351Z,10.46
2017-10-23T07:24:15.342Z,10.57
2017-10-23T07:25:16.891Z,10.54
2017-10-23T07:26:15.347Z,10.67
2017-10-23T07:27:15.663Z,10.74
2017-10-23T07:28:15.974Z,10.72
2017-10-23T07:29:15.979Z,10.68
2017-10-23T07:30:17.040Z,10.68
2017-10-23T07:31:15.961Z,10.81
2017-10-23T07:32:15.969Z,10.82
2017-10-23T07:33:15.957Z,10.82
2017-10-23T07:34:15.636Z,10.87
2017-10-23T07:35:17.178Z,10.96
2017-10-23T07:36:15.951Z,10.92
2017-10-23T07:37:15.952Z,10.97
2017-10-23T07:38:15.951Z,11.07
2017-10-23T07:39:15.943Z,11.1
2017-10-23T07:40:16.352Z,11.1
2017-10-23T07:41:15.294Z,11.05
2017-10-23T07:42:15.932Z,11.14
2017-10-23T07:43:15.656Z,11.11
2017-10-23T07:44:15.286Z,11.14
2017-10-23T07:45:17.316Z,11.11
2017-10-23T07:46:15.925Z,11.04
2017-10-23T07:47:15.641Z,10.96
2017-10-23T07:48:15.596Z,10.92
2017-10-23T07:49:15.909Z,10.92
2017-10-23T07:50:16.183Z,10.78
2017-10-23T07:51:15.907Z,10.72
2017-10-23T07:52:15.901Z,10.74
2017-10-23T07:53:15.579Z,10.78
2017-10-23T07:54:15.254Z,10.69
2017-10-23T07:55:16.918Z,10.74
2017-10-23T07:56:15.569Z,10.68
2017-10-23T07:57:15.563Z,10.82
2017-10-23T07:58:15.911Z,10.84
2017-10-23T07:59:15.574Z,10.92
2017-10-23T08:00:16.404Z,10.9
2017-10-23T08:01:15.881Z,11
2017-10-23T08:02:15.244Z,11.07
2017-10-23T08:03:15.231Z,11.07
2017-10-23T08:04:15.863Z,11.3
2017-10-23T08:05:16.538Z,11.25
2017-10-23T08:06:15.540Z,11.36
2017-10-23T08:07:15.584Z,11.37
2017-10-23T08:08:15.534Z,11.36
2017-10-23T08:09:15.880Z,11.36
2017-10-23T08:10:16.682Z,11.51
2017-10-23T08:11:15.535Z,11.44
2017-10-23T08:12:15.541Z,11.41
2017-10-23T08:13:15.842Z,11.55
2017-10-23T08:14:15.521Z,11.62
2017-10-23T08:15:16.728Z,11.65
2017-10-23T08:16:15.829Z,11.65
2017-10-23T08:17:15.197Z,11.68
2017-10-23T08:18:15.832Z,11.75
2017-10-23T08:19:15.833Z,11.7
2017-10-23T08:20:16.365Z,11.72
2017-10-23T08:21:15.822Z,11.69
2017-10-23T08:22:16.495Z,11.75
2017-10-23T08:23:15.498Z,11.62
2017-10-23T08:24:15.491Z,11.52
2017-10-23T08:25:16.361Z,11.54
2017-10-23T08:26:15.498Z,11.48
2017-10-23T08:27:15.481Z,11.37
2017-10-23T08:28:15.808Z,11.45
2017-10-23T08:29:15.807Z,11.45
2017-10-23T08:30:17.595Z,11.41
2017-10-23T08:31:15.473Z,11.43
2017-10-23T08:32:15.479Z,11.44
2017-10-23T08:33:15.493Z,11.47
2017-10-23T08:34:15.469Z,11.57
2017-10-23T08:35:16.547Z,11.55
2017-10-23T08:36:15.467Z,11.59
2017-10-23T08:37:15.406Z,11.68
2017-10-23T08:38:15.782Z,11.73
2017-10-23T08:39:15.470Z,11.84
2017-10-23T08:40:16.941Z,11.94
2017-10-23T08:41:15.774Z,12
2017-10-23T08:42:16.574Z,12.13
2017-10-23T08:43:15.768Z,12.32
2017-10-23T08:44:15.450Z,12.45
2017-10-23T08:45:16.298Z,12.55
2017-10-23T08:46:15.776Z,12.67
2017-10-23T08:47:15.772Z,12.79
2017-10-23T08:48:15.765Z,12.85
2017-10-23T08:49:15.439Z,12.79
2017-10-23T08:50:16.987Z,12.78
2017-10-23T08:51:15.756Z,12.73
2017-10-23T08:52:15.754Z,12.8
2017-10-23T08:53:15.758Z,12.78
2017-10-23T08:54:15.112Z,12.75
2017-10-23T08:55:17.110Z,12.79
2017-10-23T08:56:15.424Z,12.75
2017-10-23T08:57:15.430Z,12.76
2017-10-23T08:58:15.748Z,12.72
2017-10-23T08:59:15.752Z,12.78
2017-10-23T09:00:16.089Z,12.85
2017-10-23T09:01:15.420Z,12.82
2017-10-23T09:02:15.752Z,12.83
2017-10-23T09:03:15.741Z,12.78
2017-10-23T09:04:15.421Z,12.8
2017-10-23T09:05:17.071Z,12.79
2017-10-23T09:06:15.423Z,12.83
2017-10-23T09:07:15.743Z,12.7
2017-10-23T09:08:15.740Z,12.64
2017-10-23T09:09:15.737Z,12.68
2017-10-23T09:10:16.528Z,12.58
2017-10-23T09:11:15.412Z,12.58
2017-10-23T09:12:15.758Z,12.58
2017-10-23T09:13:15.743Z,12.64
2017-10-23T09:14:15.416Z,12.54
2017-10-23T09:15:17.247Z,12.67
2017-10-23T09:16:15.743Z,12.68
2017-10-23T09:17:15.419Z,12.68
2017-10-23T09:18:15.726Z,12.73
2017-10-23T09:19:15.402Z,12.73
2017-10-23T09:20:17.047Z,12.79
2017-10-23T09:21:15.715Z,12.82
2017-10-23T09:22:15.073Z,12.98
2017-10-23T09:23:18.362Z,13.05
2017-10-23T09:24:15.068Z,13.18
2017-10-23T09:25:16.207Z,13.46
2017-10-23T09:26:15.393Z,13.57
2017-10-23T09:27:15.708Z,13.54
2017-10-23T09:28:15.707Z,13.6
2017-10-23T09:29:15.388Z,13.62
2017-10-23T09:30:16.347Z,13.67
2017-10-23T09:31:15.750Z,13.52
2017-10-23T09:32:15.706Z,13.56
2017-10-23T09:33:15.380Z,13.47
2017-10-23T09:34:15.383Z,13.44
2017-10-23T09:35:16.424Z,13.38
2017-10-23T09:36:15.377Z,13.44
2017-10-23T09:37:15.412Z,13.35
2017-10-23T09:38:15.380Z,13.25
2017-10-23T09:39:15.696Z,13.18
2017-10-23T09:40:16.343Z,13.19
2017-10-23T09:41:15.716Z,13.04
2017-10-23T09:42:15.711Z,13.05
2017-10-23T09:43:15.698Z,13
2017-10-23T09:44:15.380Z,13.01
2017-10-23T09:45:16.642Z,13.01
2017-10-23T09:46:15.693Z,12.98
2017-10-23T09:47:15.695Z,13.11
2017-10-23T09:48:15.052Z,13.28
2017-10-23T09:49:15.699Z,13.28
2017-10-23T09:50:16.399Z,13.38
2017-10-23T09:51:15.686Z,13.46
2017-10-23T09:52:15.686Z,13.47
2017-10-23T09:53:15.362Z,13.49
2017-10-23T09:54:15.365Z,13.63
2017-10-23T09:55:16.460Z,13.78
2017-10-23T09:56:15.688Z,13.81
2017-10-23T09:57:15.358Z,13.85
2017-10-23T09:58:15.362Z,13.93
2017-10-23T09:59:15.688Z,13.92
2017-10-23T10:00:16.718Z,14
2017-10-23T10:01:15.683Z,14.03
2017-10-23T10:02:15.362Z,13.97
2017-10-23T10:03:15.359Z,13.97
2017-10-23T10:04:15.046Z,13.93
2017-10-23T10:05:16.506Z,13.77
2017-10-23T10:06:15.364Z,13.79
2017-10-23T10:07:15.049Z,13.72
2017-10-23T10:08:15.368Z,13.71
2017-10-23T10:09:15.923Z,13.47
2017-10-23T10:10:16.395Z,13.42
2017-10-23T10:11:15.684Z,13.27
2017-10-23T10:12:15.359Z,13.23
2017-10-23T10:13:15.676Z,13
2017-10-23T10:14:15.675Z,12.95
2017-10-23T10:15:17.020Z,12.9
2017-10-23T10:16:15.350Z,12.79
2017-10-23T10:17:15.677Z,12.73
2017-10-23T10:18:15.341Z,12.64
2017-10-23T10:19:15.344Z,12.54
2017-10-23T10:20:16.387Z,12.5
2017-10-23T10:21:15.698Z,12.54
2017-10-23T10:22:15.687Z,12.45
2017-10-23T10:23:15.655Z,12.47
2017-10-23T10:24:16.286Z,12.5
2017-10-23T10:25:16.510Z,12.49
2017-10-23T10:26:15.015Z,12.47
2017-10-23T10:27:15.017Z,12.47
2017-10-23T10:28:15.354Z,12.49
2017-10-23T10:29:15.330Z,12.61
2017-10-23T10:30:16.843Z,12.67
2017-10-23T10:31:15.000Z,12.62
2017-10-23T10:32:15.323Z,12.79
2017-10-23T10:33:15.321Z,12.76
2017-10-23T10:34:15.324Z,12.79
2017-10-23T10:35:17.289Z,12.8
2017-10-23T10:36:14.997Z,12.86
2017-10-23T10:37:15.636Z,12.8
2017-10-23T10:38:15.003Z,13.03
2017-10-23T10:39:18.598Z,12.93
2017-10-23T10:40:17.200Z,13
2017-10-23T10:41:14.981Z,13.01
2017-10-23T10:42:15.631Z,13.13
2017-10-23T10:43:15.313Z,13.08
2017-10-23T10:44:15.632Z,13
2017-10-23T10:45:16.776Z,13
2017-10-23T10:46:15.621Z,13.01
2017-10-23T10:47:15.614Z,12.95
2017-10-23T10:48:15.302Z,12.97
2017-10-23T10:49:15.622Z,12.98
2017-10-23T10:50:16.854Z,13.01
2017-10-23T10:51:15.619Z,13
2017-10-23T10:52:14.970Z,13.01
2017-10-23T10:53:15.300Z,13.12
2017-10-23T10:54:15.610Z,13.18
2017-10-23T10:55:18.936Z,13.18
2017-10-23T10:56:15.299Z,13.25
2017-10-23T10:57:15.303Z,13.16
2017-10-23T10:58:14.958Z,13.31
2017-10-23T10:59:15.286Z,13.27
2017-10-23T11:00:15.933Z,13.31
2017-10-23T11:01:15.275Z,13.28
2017-10-23T11:02:15.602Z,13.19
2017-10-23T11:03:15.612Z,13.28
2017-10-23T11:04:15.612Z,13.25
2017-10-23T11:05:17.139Z,13.13
2017-10-23T11:06:15.276Z,13.08
2017-10-23T11:07:15.271Z,13.09
2017-10-23T11:08:15.607Z,13.04
2017-10-23T11:09:15.588Z,13.13
2017-10-23T11:10:17.477Z,13.01
2017-10-23T11:11:15.592Z,13.01
2017-10-23T11:12:15.595Z,13.05
2017-10-23T11:13:15.589Z,13.04
2017-10-23T11:14:15.593Z,13.08
2017-10-23T11:15:17.250Z,13.05
2017-10-23T11:16:15.260Z,13.05
2017-10-23T11:17:15.258Z,13.01
2017-10-23T11:18:15.255Z,13.08
2017-10-23T11:19:15.580Z,13.08
2017-10-23T11:20:16.740Z,13.13
2017-10-23T11:21:15.255Z,13.09
2017-10-23T11:22:15.275Z,13.03
2017-10-23T11:23:15.248Z,13.05
2017-10-23T11:24:15.586Z,13.04
2017-10-23T11:25:16.625Z,13.04
2017-10-23T11:26:15.567Z,13.05
2017-10-23T11:27:15.563Z,13.19
2017-10-23T11:28:14.924Z,13.2
2017-10-23T11:29:15.573Z,13.22
2017-10-23T11:30:16.493Z,13.22
2017-10-23T11:31:14.916Z,13.15
2017-10-23T11:32:15.566Z,13.15
2017-10-23T11:33:15.240Z,13
2017-10-23T11:34:14.920Z,12.98
2017-10-23T11:35:17.302Z,13.01
2017-10-23T11:36:15.237Z,13.05
2017-10-23T11:37:15.567Z,13.03
2017-10-23T11:38:14.910Z,12.98
2017-10-23T11:39:15.231Z,13
2017-10-23T11:40:16.207Z,12.98
2017-10-23T11:41:15.611Z,13.01
2017-10-23T11:42:15.545Z,13.18
2017-10-23T11:43:14.903Z,13.16
2017-10-23T11:44:15.543Z,13.15
2017-10-23T11:45:16.524Z,13.25
2017-10-23T11:46:15.542Z,13.31
2017-10-23T11:47:14.894Z,13.42
2017-10-23T11:48:15.554Z,13.44
2017-10-23T11:49:15.211Z,13.41
2017-10-23T11:50:16.184Z,13.49
2017-10-23T11:51:15.533Z,13.47
2017-10-23T11:52:15.213Z,13.38
2017-10-23T11:53:15.530Z,13.44
2017-10-23T11:54:15.535Z,13.41
2017-10-23T11:55:16.335Z,13.52
2017-10-23T11:56:16.885Z,13.57
2017-10-23T11:57:15.550Z,13.68
2017-10-23T11:58:15.218Z,13.67
2017-10-23T11:59:15.208Z,13.68
2017-10-23T12:00:16.627Z,13.71
2017-10-23T12:01:15.536Z,13.77
2017-10-23T12:02:15.223Z,13.81
2017-10-23T12:03:15.203Z,13.85
2017-10-23T12:04:15.523Z,13.75
2017-10-23T12:05:16.363Z,13.72
2017-10-23T12:06:15.520Z,13.75
2017-10-23T12:07:15.220Z,13.83
2017-10-23T12:08:14.878Z,13.68
2017-10-23T12:09:15.316Z,13.7
2017-10-23T12:10:15.869Z,13.74
2017-10-23T12:11:17.701Z,13.74
2017-10-23T12:12:15.189Z,13.7
2017-10-23T12:13:15.198Z,13.72
2017-10-23T12:14:15.194Z,13.74
2017-10-23T12:15:16.640Z,13.83
2017-10-23T12:16:15.188Z,13.79
2017-10-23T12:17:15.199Z,13.79
2017-10-23T12:18:15.518Z,13.87
2017-10-23T12:19:15.512Z,13.81
2017-10-23T12:20:16.565Z,13.78
2017-10-23T12:21:15.509Z,13.72
2017-10-23T12:22:15.511Z,13.72
2017-10-23T12:23:15.502Z,13.67
2017-10-23T12:24:15.195Z,13.56
2017-10-23T12:25:16.371Z,13.56
2017-10-23T12:26:15.937Z,13.7
2017-10-23T12:27:15.196Z,13.68
2017-10-23T12:28:15.501Z,13.79
2017-10-23T12:29:14.852Z,13.79
2017-10-23T12:30:16.416Z,13.85
2017-10-23T12:31:15.169Z,13.79
2017-10-23T12:32:15.490Z,13.81
2017-10-23T12:33:15.494Z,13.95
2017-10-23T12:34:15.168Z,13.83
2017-10-23T12:35:16.064Z,13.92
2017-10-23T12:36:15.172Z,13.87
2017-10-23T12:37:15.488Z,13.79
2017-10-23T12:38:15.494Z,13.81
2017-10-23T12:39:15.174Z,13.89
2017-10-23T12:40:16.559Z,13.87
2017-10-23T12:41:15.168Z,13.85
2017-10-23T12:42:15.518Z,13.79
2017-10-23T12:43:15.520Z,13.86
2017-10-23T12:44:15.488Z,13.79
2017-10-23T12:45:16.672Z,13.9
2017-10-23T12:46:15.476Z,13.89
2017-10-23T12:47:15.155Z,13.87
2017-10-23T12:48:15.493Z,13.93
2017-10-23T12:49:15.485Z,13.95
2017-10-23T12:50:16.301Z,13.99
2017-10-23T12:51:15.472Z,14.05
2017-10-23T12:52:15.155Z,14.05
2017-10-23T12:53:14.832Z,14.03
2017-10-23T12:54:14.845Z,14.18
2017-10-23T12:55:16.223Z,14.17
2017-10-23T12:56:15.466Z,14.07
2017-10-23T12:57:17.211Z,14.1
2017-10-23T12:58:15.151Z,14.11
2017-10-23T12:59:15.146Z,14.07
2017-10-23T13:00:17.069Z,14.2
2017-10-23T13:01:15.468Z,14.1
2017-10-23T13:02:15.466Z,14.14
2017-10-23T13:03:15.466Z,14.12
2017-10-23T13:04:14.833Z,14.07
2017-10-23T13:05:16.065Z,14.03
2017-10-23T13:06:15.461Z,13.96
2017-10-23T13:07:15.140Z,13.81
2017-10-23T13:08:15.146Z,13.9